sensor_id;sensor_type;location;lat;lon;timestamp;P1;durP1;ratioP1;P2;durP2;ratioP2
8007;SDS011;4049;49.468;11.200;2023-04-03T00:01:34;2.60;;;2.40;;
8007;SDS011;4049;49.468;11.200;2023-04-03T00:04:03;3.10;;;2.10;;
8007;SDS011;4049;49.468;11.200;2023-04-03T00:06:30;3.17;;;2.30;;
8007;SDS011;4049;49.468;11.200;2023-04-03T00:08:57;4.60;;;2.30;;
8007;SDS011;4049;49.468;11.200;2023-04-03T00:11:25;2.63;;;2.43;;
8007;SDS011;4049;49.468;11.200;2023-04-03T00:13:52;2.40;;;2.20;;
8007;SDS011;4049;49.468;11.200;2023-04-03T00:16:19;3.27;;;2.20;;
8007;SDS011;4049;49.468;11.200;2023-04-03T00:18:45;3.73;;;2.57;;
8007;SDS011;4049;49.468;11.200;2023-04-03T00:21:12;3.00;;;2.47;;
8007;SDS011;4049;49.468;11.200;2023-04-03T00:23:40;3.80;;;2.57;;
8007;SDS011;4049;49.468;11.200;2023-04-03T00:26:07;3.97;;;2.80;;
8007;SDS011;4049;49.468;11.200;2023-04-03T00:28:35;4.57;;;2.63;;
8007;SDS011;4049;49.468;11.200;2023-04-03T00:31:02;4.57;;;2.93;;
8007;SDS011;4049;49.468;11.200;2023-04-03T00:33:29;3.47;;;2.40;;
8007;SDS011;4049;49.468;11.200;2023-04-03T00:35:56;4.87;;;2.83;;
8007;SDS011;4049;49.468;11.200;2023-04-03T00:38:23;5.47;;;2.50;;
8007;SDS011;4049;49.468;11.200;2023-04-03T00:40:50;2.67;;;2.07;;
8007;SDS011;4049;49.468;11.200;2023-04-03T00:43:17;3.80;;;2.50;;
8007;SDS011;4049;49.468;11.200;2023-04-03T00:45:48;4.47;;;2.80;;
8007;SDS011;4049;49.468;11.200;2023-04-03T00:48:17;3.10;;;2.40;;
8007;SDS011;4049;49.468;11.200;2023-04-03T00:50:46;4.13;;;2.20;;
8007;SDS011;4049;49.468;11.200;2023-04-03T00:53:14;2.57;;;1.97;;
8007;SDS011;4049;49.468;11.200;2023-04-03T00:55:44;2.50;;;2.13;;
8007;SDS011;4049;49.468;11.200;2023-04-03T00:58:13;4.53;;;2.43;;
8007;SDS011;4049;49.468;11.200;2023-04-03T01:00:42;3.10;;;2.20;;
8007;SDS011;4049;49.468;11.200;2023-04-03T01:03:15;3.07;;;2.30;;
8007;SDS011;4049;49.468;11.200;2023-04-03T01:05:42;4.00;;;2.53;;
8007;SDS011;4049;49.468;11.200;2023-04-03T01:08:09;3.20;;;2.40;;
8007;SDS011;4049;49.468;11.200;2023-04-03T01:10:36;3.77;;;2.57;;
8007;SDS011;4049;49.468;11.200;2023-04-03T01:13:07;3.53;;;2.50;;
8007;SDS011;4049;49.468;11.200;2023-04-03T01:15:45;3.13;;;2.50;;
8007;SDS011;4049;49.468;11.200;2023-04-03T01:18:12;3.13;;;2.37;;
8007;SDS011;4049;49.468;11.200;2023-04-03T01:20:49;4.23;;;2.60;;
8007;SDS011;4049;49.468;11.200;2023-04-03T01:23:44;4.27;;;2.37;;
8007;SDS011;4049;49.468;11.200;2023-04-03T01:26:22;4.47;;;2.50;;
8007;SDS011;4049;49.468;11.200;2023-04-03T01:28:50;3.13;;;2.30;;
8007;SDS011;4049;49.468;11.200;2023-04-03T01:31:22;3.33;;;2.50;;
8007;SDS011;4049;49.468;11.200;2023-04-03T01:33:53;3.93;;;2.40;;
8007;SDS011;4049;49.468;11.200;2023-04-03T01:36:21;4.93;;;2.30;;
8007;SDS011;4049;49.468;11.200;2023-04-03T01:38:49;4.57;;;2.10;;
8007;SDS011;4049;49.468;11.200;2023-04-03T01:41:16;3.00;;;2.17;;
8007;SDS011;4049;49.468;11.200;2023-04-03T01:43:45;3.53;;;2.37;;
8007;SDS011;4049;49.468;11.200;2023-04-03T01:46:13;3.03;;;2.37;;
8007;SDS011;4049;49.468;11.200;2023-04-03T01:48:40;3.90;;;2.07;;
8007;SDS011;4049;49.468;11.200;2023-04-03T01:51:08;2.90;;;2.07;;
8007;SDS011;4049;49.468;11.200;2023-04-03T01:53:35;3.13;;;2.27;;
8007;SDS011;4049;49.468;11.200;2023-04-03T01:56:02;2.20;;;2.00;;
8007;SDS011;4049;49.468;11.200;2023-04-03T01:58:30;2.33;;;2.13;;
8007;SDS011;4049;49.468;11.200;2023-04-03T02:00:57;2.67;;;2.27;;
8007;SDS011;4049;49.468;11.200;2023-04-03T02:03:23;2.60;;;2.00;;
8007;SDS011;4049;49.468;11.200;2023-04-03T02:05:50;3.10;;;2.27;;
8007;SDS011;4049;49.468;11.200;2023-04-03T02:08:18;4.83;;;2.43;;
8007;SDS011;4049;49.468;11.200;2023-04-03T02:10:46;3.07;;;2.27;;
8007;SDS011;4049;49.468;11.200;2023-04-03T02:13:13;3.37;;;2.30;;
8007;SDS011;4049;49.468;11.200;2023-04-03T02:15:40;3.00;;;2.17;;
8007;SDS011;4049;49.468;11.200;2023-04-03T02:18:07;2.73;;;2.17;;
8007;SDS011;4049;49.468;11.200;2023-04-03T02:20:35;4.03;;;2.70;;
8007;SDS011;4049;49.468;11.200;2023-04-03T02:23:02;2.53;;;2.00;;
8007;SDS011;4049;49.468;11.200;2023-04-03T02:25:31;3.43;;;2.37;;
8007;SDS011;4049;49.468;11.200;2023-04-03T02:27:58;4.33;;;2.70;;
8007;SDS011;4049;49.468;11.200;2023-04-03T02:30:25;3.17;;;2.10;;
8007;SDS011;4049;49.468;11.200;2023-04-03T02:32:52;2.87;;;2.47;;
8007;SDS011;4049;49.468;11.200;2023-04-03T02:35:19;2.47;;;2.07;;
8007;SDS011;4049;49.468;11.200;2023-04-03T02:37:46;4.57;;;2.83;;
8007;SDS011;4049;49.468;11.200;2023-04-03T02:40:13;4.90;;;2.43;;
8007;SDS011;4049;49.468;11.200;2023-04-03T02:42:41;2.83;;;2.37;;
8007;SDS011;4049;49.468;11.200;2023-04-03T02:45:08;3.20;;;2.30;;
8007;SDS011;4049;49.468;11.200;2023-04-03T02:47:35;5.43;;;2.20;;
8007;SDS011;4049;49.468;11.200;2023-04-03T02:50:02;2.60;;;2.27;;
8007;SDS011;4049;49.468;11.200;2023-04-03T02:52:29;3.07;;;2.60;;
8007;SDS011;4049;49.468;11.200;2023-04-03T02:54:56;2.47;;;2.27;;
8007;SDS011;4049;49.468;11.200;2023-04-03T02:57:23;3.30;;;2.67;;
8007;SDS011;4049;49.468;11.200;2023-04-03T02:59:51;5.37;;;2.60;;
8007;SDS011;4049;49.468;11.200;2023-04-03T03:02:18;3.27;;;2.47;;
8007;SDS011;4049;49.468;11.200;2023-04-03T03:04:45;5.10;;;2.33;;
8007;SDS011;4049;49.468;11.200;2023-04-03T03:07:12;4.47;;;2.50;;
8007;SDS011;4049;49.468;11.200;2023-04-03T03:09:38;3.10;;;2.20;;
8007;SDS011;4049;49.468;11.200;2023-04-03T03:12:05;3.83;;;2.80;;
8007;SDS011;4049;49.468;11.200;2023-04-03T03:14:32;4.17;;;2.50;;
8007;SDS011;4049;49.468;11.200;2023-04-03T03:17:00;2.57;;;2.13;;
8007;SDS011;4049;49.468;11.200;2023-04-03T03:19:27;2.67;;;2.30;;
8007;SDS011;4049;49.468;11.200;2023-04-03T03:21:54;5.77;;;2.50;;
8007;SDS011;4049;49.468;11.200;2023-04-03T03:24:21;3.27;;;2.47;;
8007;SDS011;4049;49.468;11.200;2023-04-03T03:26:48;2.93;;;2.40;;
8007;SDS011;4049;49.468;11.200;2023-04-03T03:29:15;2.73;;;2.27;;
8007;SDS011;4049;49.468;11.200;2023-04-03T03:31:42;3.47;;;2.60;;
8007;SDS011;4049;49.468;11.200;2023-04-03T03:34:10;3.97;;;2.20;;
8007;SDS011;4049;49.468;11.200;2023-04-03T03:36:37;3.60;;;2.30;;
8007;SDS011;4049;49.468;11.200;2023-04-03T03:39:04;2.90;;;2.40;;
8007;SDS011;4049;49.468;11.200;2023-04-03T03:41:31;3.23;;;2.40;;
8007;SDS011;4049;49.468;11.200;2023-04-03T03:43:58;3.73;;;2.77;;
8007;SDS011;4049;49.468;11.200;2023-04-03T03:46:25;3.63;;;2.60;;
8007;SDS011;4049;49.468;11.200;2023-04-03T03:48:51;3.87;;;2.63;;
8007;SDS011;4049;49.468;11.200;2023-04-03T03:51:19;3.97;;;2.50;;
8007;SDS011;4049;49.468;11.200;2023-04-03T03:53:46;5.87;;;2.63;;
8007;SDS011;4049;49.468;11.200;2023-04-03T03:56:13;2.77;;;2.47;;
8007;SDS011;4049;49.468;11.200;2023-04-03T03:58:40;2.83;;;2.47;;
8007;SDS011;4049;49.468;11.200;2023-04-03T04:01:07;3.10;;;2.50;;
8007;SDS011;4049;49.468;11.200;2023-04-03T04:03:34;3.60;;;3.00;;
8007;SDS011;4049;49.468;11.200;2023-04-03T04:06:00;4.40;;;3.00;;
8007;SDS011;4049;49.468;11.200;2023-04-03T04:08:29;3.63;;;2.67;;
8007;SDS011;4049;49.468;11.200;2023-04-03T04:10:56;3.80;;;2.67;;
8007;SDS011;4049;49.468;11.200;2023-04-03T04:13:23;4.20;;;2.60;;
8007;SDS011;4049;49.468;11.200;2023-04-03T04:15:50;4.97;;;2.43;;
8007;SDS011;4049;49.468;11.200;2023-04-03T04:18:17;3.33;;;2.67;;
8007;SDS011;4049;49.468;11.200;2023-04-03T04:20:45;3.20;;;2.60;;
8007;SDS011;4049;49.468;11.200;2023-04-03T04:23:12;2.80;;;2.50;;
8007;SDS011;4049;49.468;11.200;2023-04-03T04:25:40;5.10;;;2.60;;
8007;SDS011;4049;49.468;11.200;2023-04-03T04:28:06;4.00;;;2.73;;
8007;SDS011;4049;49.468;11.200;2023-04-03T04:30:33;2.63;;;2.40;;
8007;SDS011;4049;49.468;11.200;2023-04-03T04:33:00;3.43;;;2.53;;
8007;SDS011;4049;49.468;11.200;2023-04-03T04:35:27;4.77;;;3.10;;
8007;SDS011;4049;49.468;11.200;2023-04-03T04:37:54;6.43;;;4.40;;
8007;SDS011;4049;49.468;11.200;2023-04-03T04:40:21;6.27;;;3.40;;
8007;SDS011;4049;49.468;11.200;2023-04-03T04:42:49;4.43;;;3.27;;
8007;SDS011;4049;49.468;11.200;2023-04-03T04:45:16;4.60;;;3.10;;
8007;SDS011;4049;49.468;11.200;2023-04-03T04:47:43;4.60;;;2.63;;
8007;SDS011;4049;49.468;11.200;2023-04-03T04:50:10;4.10;;;2.90;;
8007;SDS011;4049;49.468;11.200;2023-04-03T04:52:37;4.57;;;2.80;;
8007;SDS011;4049;49.468;11.200;2023-04-03T04:55:04;4.03;;;2.80;;
8007;SDS011;4049;49.468;11.200;2023-04-03T04:57:32;3.47;;;2.57;;
8007;SDS011;4049;49.468;11.200;2023-04-03T05:00:01;5.00;;;3.10;;
8007;SDS011;4049;49.468;11.200;2023-04-03T05:02:28;5.63;;;3.00;;
8007;SDS011;4049;49.468;11.200;2023-04-03T05:04:55;2.93;;;2.30;;
8007;SDS011;4049;49.468;11.200;2023-04-03T05:07:22;3.73;;;3.00;;
8007;SDS011;4049;49.468;11.200;2023-04-03T05:09:49;3.97;;;2.90;;
8007;SDS011;4049;49.468;11.200;2023-04-03T05:12:16;5.63;;;3.20;;
8007;SDS011;4049;49.468;11.200;2023-04-03T05:14:43;7.33;;;3.60;;
8007;SDS011;4049;49.468;11.200;2023-04-03T05:17:11;4.80;;;3.20;;
8007;SDS011;4049;49.468;11.200;2023-04-03T05:19:38;5.43;;;3.23;;
8007;SDS011;4049;49.468;11.200;2023-04-03T05:22:05;5.20;;;3.30;;
8007;SDS011;4049;49.468;11.200;2023-04-03T05:24:32;4.03;;;3.20;;
8007;SDS011;4049;49.468;11.200;2023-04-03T05:26:59;5.70;;;3.00;;
8007;SDS011;4049;49.468;11.200;2023-04-03T05:29:25;5.40;;;3.57;;
8007;SDS011;4049;49.468;11.200;2023-04-03T05:31:52;5.63;;;3.87;;
8007;SDS011;4049;49.468;11.200;2023-04-03T05:34:20;6.60;;;3.83;;
8007;SDS011;4049;49.468;11.200;2023-04-03T05:36:47;6.70;;;3.47;;
8007;SDS011;4049;49.468;11.200;2023-04-03T05:39:14;6.60;;;3.73;;
8007;SDS011;4049;49.468;11.200;2023-04-03T05:41:41;9.00;;;4.00;;
8007;SDS011;4049;49.468;11.200;2023-04-03T05:44:08;5.00;;;3.87;;
8007;SDS011;4049;49.468;11.200;2023-04-03T05:46:34;5.97;;;3.97;;
8007;SDS011;4049;49.468;11.200;2023-04-03T05:49:01;6.83;;;4.13;;
8007;SDS011;4049;49.468;11.200;2023-04-03T05:51:30;6.77;;;4.20;;
8007;SDS011;4049;49.468;11.200;2023-04-03T05:54:03;7.20;;;4.40;;
8007;SDS011;4049;49.468;11.200;2023-04-03T05:56:35;7.10;;;4.20;;
8007;SDS011;4049;49.468;11.200;2023-04-03T05:59:02;5.90;;;3.67;;
8007;SDS011;4049;49.468;11.200;2023-04-03T06:01:28;6.27;;;3.60;;
8007;SDS011;4049;49.468;11.200;2023-04-03T06:03:55;4.40;;;3.40;;
8007;SDS011;4049;49.468;11.200;2023-04-03T06:06:23;6.93;;;3.93;;
8007;SDS011;4049;49.468;11.200;2023-04-03T06:08:51;7.23;;;3.50;;
8007;SDS011;4049;49.468;11.200;2023-04-03T06:11:18;4.97;;;3.67;;
8007;SDS011;4049;49.468;11.200;2023-04-03T06:13:46;6.63;;;3.60;;
8007;SDS011;4049;49.468;11.200;2023-04-03T06:16:13;4.67;;;3.27;;
8007;SDS011;4049;49.468;11.200;2023-04-03T06:18:43;5.17;;;3.70;;
8007;SDS011;4049;49.468;11.200;2023-04-03T06:21:09;5.90;;;3.30;;
8007;SDS011;4049;49.468;11.200;2023-04-03T06:23:36;6.07;;;3.30;;
8007;SDS011;4049;49.468;11.200;2023-04-03T06:26:04;5.00;;;3.80;;
8007;SDS011;4049;49.468;11.200;2023-04-03T06:28:32;6.97;;;3.70;;
8007;SDS011;4049;49.468;11.200;2023-04-03T06:30:59;5.13;;;3.20;;
8007;SDS011;4049;49.468;11.200;2023-04-03T06:33:25;6.63;;;3.37;;
8007;SDS011;4049;49.468;11.200;2023-04-03T06:35:55;6.63;;;3.53;;
8007;SDS011;4049;49.468;11.200;2023-04-03T06:38:23;3.17;;;2.80;;
8007;SDS011;4049;49.468;11.200;2023-04-03T06:40:50;4.67;;;3.30;;
8007;SDS011;4049;49.468;11.200;2023-04-03T06:43:19;4.27;;;3.23;;
8007;SDS011;4049;49.468;11.200;2023-04-03T06:45:46;5.47;;;3.20;;
8007;SDS011;4049;49.468;11.200;2023-04-03T06:48:13;4.33;;;3.23;;
8007;SDS011;4049;49.468;11.200;2023-04-03T06:50:40;5.87;;;3.53;;
8007;SDS011;4049;49.468;11.200;2023-04-03T06:53:07;5.10;;;3.33;;
8007;SDS011;4049;49.468;11.200;2023-04-03T06:55:35;4.50;;;2.90;;
8007;SDS011;4049;49.468;11.200;2023-04-03T06:58:02;3.80;;;3.03;;
8007;SDS011;4049;49.468;11.200;2023-04-03T07:00:30;5.57;;;3.27;;
8007;SDS011;4049;49.468;11.200;2023-04-03T07:02:57;8.10;;;3.50;;
8007;SDS011;4049;49.468;11.200;2023-04-03T07:05:24;8.63;;;3.73;;
8007;SDS011;4049;49.468;11.200;2023-04-03T07:07:51;6.17;;;3.37;;
8007;SDS011;4049;49.468;11.200;2023-04-03T07:10:18;5.57;;;3.20;;
8007;SDS011;4049;49.468;11.200;2023-04-03T07:12:45;5.37;;;3.53;;
8007;SDS011;4049;49.468;11.200;2023-04-03T07:15:13;6.67;;;3.53;;
8007;SDS011;4049;49.468;11.200;2023-04-03T07:17:41;9.47;;;4.07;;
8007;SDS011;4049;49.468;11.200;2023-04-03T07:20:09;4.87;;;3.47;;
8007;SDS011;4049;49.468;11.200;2023-04-03T07:22:36;4.93;;;3.37;;
8007;SDS011;4049;49.468;11.200;2023-04-03T07:25:03;4.53;;;2.90;;
8007;SDS011;4049;49.468;11.200;2023-04-03T07:27:32;4.13;;;3.10;;
8007;SDS011;4049;49.468;11.200;2023-04-03T07:29:59;7.73;;;3.23;;
8007;SDS011;4049;49.468;11.200;2023-04-03T07:32:26;5.23;;;2.80;;
8007;SDS011;4049;49.468;11.200;2023-04-03T07:34:54;3.47;;;2.90;;
8007;SDS011;4049;49.468;11.200;2023-04-03T07:37:21;6.87;;;3.03;;
8007;SDS011;4049;49.468;11.200;2023-04-03T07:39:48;4.13;;;2.60;;
8007;SDS011;4049;49.468;11.200;2023-04-03T07:42:15;10.93;;;5.33;;
8007;SDS011;4049;49.468;11.200;2023-04-03T07:44:42;5.03;;;3.17;;
8007;SDS011;4049;49.468;11.200;2023-04-03T07:47:10;7.10;;;3.13;;
8007;SDS011;4049;49.468;11.200;2023-04-03T07:49:38;5.27;;;3.10;;
8007;SDS011;4049;49.468;11.200;2023-04-03T07:52:07;4.57;;;2.80;;
8007;SDS011;4049;49.468;11.200;2023-04-03T07:54:34;7.57;;;2.90;;
8007;SDS011;4049;49.468;11.200;2023-04-03T07:57:01;5.97;;;3.20;;
8007;SDS011;4049;49.468;11.200;2023-04-03T07:59:29;5.27;;;3.60;;
8007;SDS011;4049;49.468;11.200;2023-04-03T08:01:55;4.83;;;2.70;;
8007;SDS011;4049;49.468;11.200;2023-04-03T08:04:22;3.93;;;2.80;;
8007;SDS011;4049;49.468;11.200;2023-04-03T08:06:50;7.70;;;4.43;;
8007;SDS011;4049;49.468;11.200;2023-04-03T08:09:18;4.70;;;3.03;;
8007;SDS011;4049;49.468;11.200;2023-04-03T08:11:45;3.87;;;3.13;;
8007;SDS011;4049;49.468;11.200;2023-04-03T08:14:12;4.10;;;2.93;;
8007;SDS011;4049;49.468;11.200;2023-04-03T08:16:42;6.33;;;3.40;;
8007;SDS011;4049;49.468;11.200;2023-04-03T08:19:10;5.33;;;3.50;;
8007;SDS011;4049;49.468;11.200;2023-04-03T08:21:39;5.60;;;2.70;;
8007;SDS011;4049;49.468;11.200;2023-04-03T08:24:07;3.57;;;2.60;;
8007;SDS011;4049;49.468;11.200;2023-04-03T08:26:36;4.33;;;2.57;;
8007;SDS011;4049;49.468;11.200;2023-04-03T08:29:03;2.83;;;2.30;;
8007;SDS011;4049;49.468;11.200;2023-04-03T08:31:30;4.80;;;2.40;;
8007;SDS011;4049;49.468;11.200;2023-04-03T08:33:57;4.53;;;2.47;;
8007;SDS011;4049;49.468;11.200;2023-04-03T08:36:24;2.93;;;2.47;;
8007;SDS011;4049;49.468;11.200;2023-04-03T08:38:52;3.73;;;2.70;;
8007;SDS011;4049;49.468;11.200;2023-04-03T08:41:20;3.60;;;2.50;;
8007;SDS011;4049;49.468;11.200;2023-04-03T08:43:59;4.60;;;2.50;;
8007;SDS011;4049;49.468;11.200;2023-04-03T08:46:37;3.47;;;2.20;;
8007;SDS011;4049;49.468;11.200;2023-04-03T08:49:15;5.07;;;2.23;;
8007;SDS011;4049;49.468;11.200;2023-04-03T08:51:48;3.60;;;2.47;;
8007;SDS011;4049;49.468;11.200;2023-04-03T08:54:20;3.53;;;1.90;;
8007;SDS011;4049;49.468;11.200;2023-04-03T08:56:55;9.67;;;5.77;;
8007;SDS011;4049;49.468;11.200;2023-04-03T08:59:28;4.20;;;2.50;;
8007;SDS011;4049;49.468;11.200;2023-04-03T09:01:59;2.87;;;2.17;;
8007;SDS011;4049;49.468;11.200;2023-04-03T09:04:32;5.30;;;3.30;;
8007;SDS011;4049;49.468;11.200;2023-04-03T09:07:02;4.10;;;2.30;;
8007;SDS011;4049;49.468;11.200;2023-04-03T09:09:33;4.17;;;2.50;;
8007;SDS011;4049;49.468;11.200;2023-04-03T09:12:06;3.40;;;2.33;;
8007;SDS011;4049;49.468;11.200;2023-04-03T09:14:43;2.90;;;2.13;;
8007;SDS011;4049;49.468;11.200;2023-04-03T09:17:17;4.00;;;2.47;;
8007;SDS011;4049;49.468;11.200;2023-04-03T09:19:49;5.83;;;2.33;;
8007;SDS011;4049;49.468;11.200;2023-04-03T09:22:22;2.93;;;2.20;;
8007;SDS011;4049;49.468;11.200;2023-04-03T09:24:52;3.57;;;2.47;;
8007;SDS011;4049;49.468;11.200;2023-04-03T09:27:25;6.03;;;2.43;;
8007;SDS011;4049;49.468;11.200;2023-04-03T09:29:53;3.63;;;2.10;;
8007;SDS011;4049;49.468;11.200;2023-04-03T09:32:25;3.30;;;1.93;;
8007;SDS011;4049;49.468;11.200;2023-04-03T09:34:53;2.17;;;1.93;;
8007;SDS011;4049;49.468;11.200;2023-04-03T09:43:01;4.00;;;2.50;;
8007;SDS011;4049;49.468;11.200;2023-04-03T09:45:31;2.87;;;2.20;;
8007;SDS011;4049;49.468;11.200;2023-04-03T09:48:06;3.87;;;2.20;;
8007;SDS011;4049;49.468;11.200;2023-04-03T09:50:35;2.60;;;2.23;;
8007;SDS011;4049;49.468;11.200;2023-04-03T09:53:06;2.20;;;1.83;;
8007;SDS011;4049;49.468;11.200;2023-04-03T09:55:41;3.40;;;2.20;;
8007;SDS011;4049;49.468;11.200;2023-04-03T09:58:22;2.50;;;2.00;;
8007;SDS011;4049;49.468;11.200;2023-04-03T10:00:55;2.23;;;1.70;;
8007;SDS011;4049;49.468;11.200;2023-04-03T10:03:24;3.93;;;2.20;;
8007;SDS011;4049;49.468;11.200;2023-04-03T10:05:54;2.30;;;2.10;;
8007;SDS011;4049;49.468;11.200;2023-04-03T10:08:23;4.60;;;2.30;;
8007;SDS011;4049;49.468;11.200;2023-04-03T10:13:35;4.13;;;2.33;;
8007;SDS011;4049;49.468;11.200;2023-04-03T10:16:17;3.83;;;2.30;;
8007;SDS011;4049;49.468;11.200;2023-04-03T10:18:47;3.53;;;2.37;;
8007;SDS011;4049;49.468;11.200;2023-04-03T10:21:26;9.60;;;4.83;;
8007;SDS011;4049;49.468;11.200;2023-04-03T10:24:03;5.23;;;2.50;;
8007;SDS011;4049;49.468;11.200;2023-04-03T10:26:39;2.47;;;1.93;;
8007;SDS011;4049;49.468;11.200;2023-04-03T10:29:20;3.30;;;2.10;;
8007;SDS011;4049;49.468;11.200;2023-04-03T10:31:57;4.60;;;2.80;;
8007;SDS011;4049;49.468;11.200;2023-04-03T10:34:30;4.40;;;2.43;;
8007;SDS011;4049;49.468;11.200;2023-04-03T10:37:01;2.80;;;2.37;;
8007;SDS011;4049;49.468;11.200;2023-04-03T10:39:35;5.00;;;2.67;;
8007;SDS011;4049;49.468;11.200;2023-04-03T10:42:12;3.00;;;2.20;;
8007;SDS011;4049;49.468;11.200;2023-04-03T10:44:51;4.53;;;2.80;;
8007;SDS011;4049;49.468;11.200;2023-04-03T10:47:30;3.70;;;2.33;;
8007;SDS011;4049;49.468;11.200;2023-04-03T10:50:10;5.93;;;3.10;;
8007;SDS011;4049;49.468;11.200;2023-04-03T10:52:54;4.80;;;2.00;;
8007;SDS011;4049;49.468;11.200;2023-04-03T10:55:30;3.30;;;2.13;;
8007;SDS011;4049;49.468;11.200;2023-04-03T10:58:02;2.93;;;2.33;;
8007;SDS011;4049;49.468;11.200;2023-04-03T11:00:34;13.93;;;6.83;;
8007;SDS011;4049;49.468;11.200;2023-04-03T11:03:07;4.67;;;2.50;;
8007;SDS011;4049;49.468;11.200;2023-04-03T11:05:39;3.73;;;2.30;;
8007;SDS011;4049;49.468;11.200;2023-04-03T11:08:11;3.07;;;2.10;;
8007;SDS011;4049;49.468;11.200;2023-04-03T11:10:57;9.80;;;4.47;;
8007;SDS011;4049;49.468;11.200;2023-04-03T11:13:30;3.37;;;2.03;;
8007;SDS011;4049;49.468;11.200;2023-04-03T11:16:00;3.80;;;2.20;;
8007;SDS011;4049;49.468;11.200;2023-04-03T11:18:32;3.00;;;1.93;;
8007;SDS011;4049;49.468;11.200;2023-04-03T11:21:06;3.80;;;2.37;;
8007;SDS011;4049;49.468;11.200;2023-04-03T11:23:38;2.20;;;1.80;;
8007;SDS011;4049;49.468;11.200;2023-04-03T11:26:08;2.23;;;2.00;;
8007;SDS011;4049;49.468;11.200;2023-04-03T11:28:36;7.77;;;3.87;;
8007;SDS011;4049;49.468;11.200;2023-04-03T11:31:07;7.83;;;4.20;;
8007;SDS011;4049;49.468;11.200;2023-04-03T11:33:49;4.53;;;2.77;;
8007;SDS011;4049;49.468;11.200;2023-04-03T11:36:22;4.27;;;2.40;;
8007;SDS011;4049;49.468;11.200;2023-04-03T11:38:51;3.93;;;2.50;;
8007;SDS011;4049;49.468;11.200;2023-04-03T11:41:25;3.43;;;3.07;;
8007;SDS011;4049;49.468;11.200;2023-04-03T11:43:58;3.10;;;1.87;;
8007;SDS011;4049;49.468;11.200;2023-04-03T11:58:17;2.30;;;1.70;;
8007;SDS011;4049;49.468;11.200;2023-04-03T12:00:47;2.30;;;2.10;;
8007;SDS011;4049;49.468;11.200;2023-04-03T12:18:36;2.07;;;1.60;;
8007;SDS011;4049;49.468;11.200;2023-04-03T12:21:08;2.50;;;1.40;;
8007;SDS011;4049;49.468;11.200;2023-04-03T12:23:36;1.23;;;1.10;;
8007;SDS011;4049;49.468;11.200;2023-04-03T12:26:21;1.53;;;1.33;;
8007;SDS011;4049;49.468;11.200;2023-04-03T12:28:53;2.50;;;1.60;;
8007;SDS011;4049;49.468;11.200;2023-04-03T12:31:22;3.00;;;1.60;;
8007;SDS011;4049;49.468;11.200;2023-04-03T12:34:04;2.20;;;1.60;;
8007;SDS011;4049;49.468;11.200;2023-04-03T12:36:45;2.93;;;1.50;;
8007;SDS011;4049;49.468;11.200;2023-04-03T12:39:22;1.53;;;1.40;;
8007;SDS011;4049;49.468;11.200;2023-04-03T12:42:04;1.50;;;1.20;;
8007;SDS011;4049;49.468;11.200;2023-04-03T12:44:45;2.27;;;1.40;;
8007;SDS011;4049;49.468;11.200;2023-04-03T12:47:23;2.73;;;1.27;;
8007;SDS011;4049;49.468;11.200;2023-04-03T12:49:53;1.87;;;1.37;;
8007;SDS011;4049;49.468;11.200;2023-04-03T12:52:30;3.53;;;1.47;;
8007;SDS011;4049;49.468;11.200;2023-04-03T12:55:01;1.50;;;1.20;;
8007;SDS011;4049;49.468;11.200;2023-04-03T12:57:30;1.83;;;1.30;;
8007;SDS011;4049;49.468;11.200;2023-04-03T12:59:59;2.07;;;1.40;;
8007;SDS011;4049;49.468;11.200;2023-04-03T13:02:44;2.27;;;1.57;;
8007;SDS011;4049;49.468;11.200;2023-04-03T13:05:13;2.23;;;1.57;;
8007;SDS011;4049;49.468;11.200;2023-04-03T13:07:43;4.13;;;2.50;;
8007;SDS011;4049;49.468;11.200;2023-04-03T13:10:16;1.93;;;1.73;;
8007;SDS011;4049;49.468;11.200;2023-04-03T13:12:45;2.30;;;1.60;;
8007;SDS011;4049;49.468;11.200;2023-04-03T13:15:15;2.13;;;1.50;;
8007;SDS011;4049;49.468;11.200;2023-04-03T13:17:44;2.90;;;1.90;;
8007;SDS011;4049;49.468;11.200;2023-04-03T13:20:15;3.10;;;1.80;;
8007;SDS011;4049;49.468;11.200;2023-04-03T13:22:48;2.53;;;1.80;;
8007;SDS011;4049;49.468;11.200;2023-04-03T13:25:22;3.40;;;1.50;;
8007;SDS011;4049;49.468;11.200;2023-04-03T13:27:50;2.30;;;1.80;;
8007;SDS011;4049;49.468;11.200;2023-04-03T13:30:23;4.97;;;2.20;;
8007;SDS011;4049;49.468;11.200;2023-04-03T13:32:52;2.53;;;1.90;;
8007;SDS011;4049;49.468;11.200;2023-04-03T13:35:30;2.90;;;1.73;;
8007;SDS011;4049;49.468;11.200;2023-04-03T13:38:04;2.83;;;1.60;;
8007;SDS011;4049;49.468;11.200;2023-04-03T13:40:47;3.47;;;1.80;;
8007;SDS011;4049;49.468;11.200;2023-04-03T13:43:17;2.67;;;1.60;;
8007;SDS011;4049;49.468;11.200;2023-04-03T13:45:54;2.40;;;1.50;;
8007;SDS011;4049;49.468;11.200;2023-04-03T13:48:47;2.70;;;1.60;;
8007;SDS011;4049;49.468;11.200;2023-04-03T13:51:20;2.10;;;1.30;;
8007;SDS011;4049;49.468;11.200;2023-04-03T13:53:50;1.80;;;1.70;;
8007;SDS011;4049;49.468;11.200;2023-04-03T13:56:21;3.53;;;1.70;;
8007;SDS011;4049;49.468;11.200;2023-04-03T13:58:58;2.40;;;1.80;;
8007;SDS011;4049;49.468;11.200;2023-04-03T14:01:37;3.20;;;1.50;;
8007;SDS011;4049;49.468;11.200;2023-04-03T14:04:12;2.43;;;1.60;;
8007;SDS011;4049;49.468;11.200;2023-04-03T14:06:42;2.27;;;1.70;;
8007;SDS011;4049;49.468;11.200;2023-04-03T14:09:08;2.70;;;1.70;;
8007;SDS011;4049;49.468;11.200;2023-04-03T14:11:35;2.83;;;1.80;;
8007;SDS011;4049;49.468;11.200;2023-04-03T14:14:05;2.77;;;1.90;;
8007;SDS011;4049;49.468;11.200;2023-04-03T14:16:39;2.87;;;2.00;;
8007;SDS011;4049;49.468;11.200;2023-04-03T14:19:22;2.30;;;1.70;;
8007;SDS011;4049;49.468;11.200;2023-04-03T14:21:50;2.23;;;1.50;;
8007;SDS011;4049;49.468;11.200;2023-04-03T14:24:18;2.93;;;2.10;;
8007;SDS011;4049;49.468;11.200;2023-04-03T14:26:46;2.17;;;1.60;;
8007;SDS011;4049;49.468;11.200;2023-04-03T14:29:13;2.20;;;1.60;;
8007;SDS011;4049;49.468;11.200;2023-04-03T14:31:43;5.63;;;1.93;;
8007;SDS011;4049;49.468;11.200;2023-04-03T14:34:11;3.10;;;1.70;;
8007;SDS011;4049;49.468;11.200;2023-04-03T14:36:39;2.03;;;1.80;;
8007;SDS011;4049;49.468;11.200;2023-04-03T14:39:10;2.10;;;1.87;;
8007;SDS011;4049;49.468;11.200;2023-04-03T14:41:42;2.10;;;1.70;;
8007;SDS011;4049;49.468;11.200;2023-04-03T14:44:10;3.33;;;1.87;;
8007;SDS011;4049;49.468;11.200;2023-04-03T14:46:37;3.37;;;1.73;;
8007;SDS011;4049;49.468;11.200;2023-04-03T14:49:09;3.50;;;1.70;;
8007;SDS011;4049;49.468;11.200;2023-04-03T14:51:40;5.50;;;2.70;;
8007;SDS011;4049;49.468;11.200;2023-04-03T14:54:10;3.90;;;2.03;;
8007;SDS011;4049;49.468;11.200;2023-04-03T14:56:39;2.47;;;1.70;;
8007;SDS011;4049;49.468;11.200;2023-04-03T14:59:08;2.63;;;1.60;;
8007;SDS011;4049;49.468;11.200;2023-04-03T15:01:37;3.03;;;1.80;;
8007;SDS011;4049;49.468;11.200;2023-04-03T15:04:08;3.47;;;2.00;;
8007;SDS011;4049;49.468;11.200;2023-04-03T15:06:37;3.47;;;2.10;;
8007;SDS011;4049;49.468;11.200;2023-04-03T15:09:04;5.13;;;2.20;;
8007;SDS011;4049;49.468;11.200;2023-04-03T15:11:31;2.37;;;1.73;;
8007;SDS011;4049;49.468;11.200;2023-04-03T15:13:58;2.70;;;1.77;;
8007;SDS011;4049;49.468;11.200;2023-04-03T15:16:25;2.20;;;1.80;;
8007;SDS011;4049;49.468;11.200;2023-04-03T15:18:53;1.67;;;1.57;;
8007;SDS011;4049;49.468;11.200;2023-04-03T15:21:21;2.57;;;1.80;;
8007;SDS011;4049;49.468;11.200;2023-04-03T15:23:48;1.77;;;1.60;;
8007;SDS011;4049;49.468;11.200;2023-04-03T15:26:15;2.57;;;1.93;;
8007;SDS011;4049;49.468;11.200;2023-04-03T15:28:42;2.93;;;2.00;;
8007;SDS011;4049;49.468;11.200;2023-04-03T15:31:09;2.60;;;2.03;;
8007;SDS011;4049;49.468;11.200;2023-04-03T15:33:36;3.23;;;1.93;;
8007;SDS011;4049;49.468;11.200;2023-04-03T15:36:03;2.97;;;2.10;;
8007;SDS011;4049;49.468;11.200;2023-04-03T15:38:32;3.90;;;2.00;;
8007;SDS011;4049;49.468;11.200;2023-04-03T15:40:59;3.00;;;2.10;;
8007;SDS011;4049;49.468;11.200;2023-04-03T15:43:25;3.90;;;2.20;;
8007;SDS011;4049;49.468;11.200;2023-04-03T15:45:52;3.77;;;2.20;;
8007;SDS011;4049;49.468;11.200;2023-04-03T15:48:25;3.10;;;2.17;;
8007;SDS011;4049;49.468;11.200;2023-04-03T15:50:52;3.50;;;1.80;;